createdAt,value
2022-11-01T00:02:24.340Z,11.05
2022-11-01T00:05:14.611Z,11.06
2022-11-01T00:08:12.866Z,11.05
2022-11-01T00:11:08.709Z,11.02
2022-11-01T00:13:56.922Z,11.05
2022-11-01T00:16:44.851Z,11.06
2022-11-01T00:19:33.817Z,11.02
2022-11-01T00:22:22.754Z,10.96
2022-11-01T00:25:10.345Z,10.90
2022-11-01T00:27:58.130Z,10.88
2022-11-01T00:30:46.111Z,10.85
2022-11-01T00:33:34.137Z,10.86
2022-11-01T00:36:21.696Z,10.87
2022-11-01T00:39:14.562Z,10.87
2022-11-01T00:42:02.342Z,10.88
2022-11-01T00:44:50.101Z,10.92
2022-11-01T00:47:38.057Z,10.97
2022-11-01T00:50:26.450Z,11.02
2022-11-01T00:53:14.642Z,11.03
2022-11-01T00:56:05.084Z,11.03
2022-11-01T00:58:52.867Z,10.95
2022-11-01T01:01:40.876Z,10.90
2022-11-01T01:04:28.937Z,10.90
2022-11-01T01:07:17.760Z,10.89
2022-11-01T01:10:07.714Z,10.84
2022-11-01T01:12:55.464Z,10.81
2022-11-01T01:15:43.544Z,10.79
2022-11-01T01:18:31.133Z,10.77
2022-11-01T01:21:19.711Z,10.75
2022-11-01T01:24:07.671Z,10.75
2022-11-01T01:26:55.024Z,10.74
2022-11-01T01:29:44.620Z,10.72
2022-11-01T01:32:32.468Z,10.71
2022-11-01T01:35:20.154Z,10.72
2022-11-01T01:38:08.257Z,10.74
2022-11-01T01:41:16.831Z,10.78
2022-11-01T01:45:04.565Z,10.81
2022-11-01T01:47:54.562Z,10.82
2022-11-01T01:50:54.370Z,10.80
2022-11-01T01:53:47.714Z,10.78
2022-11-01T01:56:37.353Z,10.76
2022-11-01T01:59:25.904Z,10.74
2022-11-01T02:02:14.551Z,10.77
2022-11-01T02:05:17.446Z,10.79
2022-11-01T02:08:07.210Z,10.80
2022-11-01T02:10:59.702Z,10.77
2022-11-01T02:13:47.599Z,10.74
2022-11-01T02:17:17.934Z,10.75
2022-11-01T02:20:49.555Z,10.72
2022-11-01T02:23:57.360Z,10.71
2022-11-01T02:27:19.822Z,10.72
2022-11-01T02:30:20.447Z,10.74
2022-11-01T02:33:32.244Z,10.75
2022-11-01T02:36:47.840Z,10.76
2022-11-01T02:39:41.706Z,10.82
2022-11-01T02:42:39.383Z,10.84
2022-11-01T02:45:37.409Z,10.88
2022-11-01T02:48:25.981Z,10.91
2022-11-01T02:51:14.185Z,10.93
2022-11-01T02:54:13.656Z,10.95
2022-11-01T02:57:14.521Z,10.96
2022-11-01T03:00:26.923Z,10.96
2022-11-01T03:03:29.865Z,10.95
2022-11-01T03:06:43.205Z,10.96
2022-11-01T03:09:32.204Z,10.94
2022-11-01T03:15:34.075Z,10.96
2022-11-01T03:18:35.880Z,10.97
2022-11-01T03:21:26.994Z,10.96
2022-11-01T03:25:01.368Z,10.96
2022-11-01T03:27:49.261Z,10.93
2022-11-01T03:30:43.074Z,10.88
2022-11-01T03:33:33.202Z,10.86
2022-11-01T03:36:26.319Z,10.87
2022-11-01T03:39:26.262Z,10.88
2022-11-01T03:42:24.586Z,10.92
2022-11-01T03:45:13.610Z,10.92
2022-11-01T03:48:02.097Z,10.91
2022-11-01T03:50:52.986Z,10.90
2022-11-01T03:53:40.635Z,10.89
2022-11-01T03:56:28.369Z,10.84
2022-11-01T03:59:16.235Z,10.81
2022-11-01T04:02:04.023Z,10.83
2022-11-01T04:04:51.782Z,10.86
2022-11-01T04:07:40.469Z,10.89
2022-11-01T04:10:31.802Z,10.93
2022-11-01T04:13:19.500Z,10.97
2022-11-01T04:16:30.586Z,11.01
2022-11-01T04:19:50.432Z,11.03
2022-11-01T04:22:38.900Z,11.04
2022-11-01T04:25:26.669Z,11.06
2022-11-01T04:28:16.075Z,11.07
2022-11-01T04:31:04.860Z,11.08
2022-11-01T04:33:52.962Z,11.09
2022-11-01T04:36:40.470Z,11.12
2022-11-01T04:39:28.414Z,11.13
2022-11-01T04:42:16.222Z,11.14
2022-11-01T04:45:09.260Z,11.15
2022-11-01T04:48:05.581Z,11.15
2022-11-01T04:50:53.805Z,11.16
2022-11-01T04:53:43.665Z,11.17
2022-11-01T04:56:31.145Z,11.17
2022-11-01T04:59:18.723Z,11.18
2022-11-01T05:02:06.442Z,11.20
2022-11-01T05:04:54.224Z,11.20
2022-11-01T05:07:41.768Z,11.19
2022-11-01T05:10:29.911Z,11.16
2022-11-01T05:13:17.809Z,11.12
2022-11-01T05:16:18.850Z,11.09
2022-11-01T05:19:13.827Z,11.08
2022-11-01T05:22:01.108Z,11.09
2022-11-01T05:24:48.789Z,11.08
2022-11-01T05:27:37.850Z,11.07
2022-11-01T05:30:25.796Z,11.09
2022-11-01T05:33:13.230Z,11.10
2022-11-01T05:36:02.063Z,11.09
2022-11-01T05:38:49.989Z,11.04
2022-11-01T05:41:37.562Z,10.97
2022-11-01T05:44:25.411Z,10.93
2022-11-01T05:47:17.186Z,10.87
2022-11-01T05:50:05.832Z,10.81
2022-11-01T05:52:53.481Z,10.78
2022-11-01T05:55:41.615Z,10.78
2022-11-01T05:58:30.771Z,10.79
2022-11-01T06:01:19.216Z,10.79
2022-11-01T06:04:07.159Z,10.79
2022-11-01T06:06:55.051Z,10.78
2022-11-01T06:09:42.751Z,10.79
2022-11-01T06:12:30.675Z,10.80
2022-11-01T06:15:18.361Z,10.79
2022-11-01T06:18:06.518Z,10.79
2022-11-01T06:20:54.642Z,10.79
2022-11-01T06:23:47.036Z,10.76
2022-11-01T06:26:34.745Z,10.76
2022-11-01T06:29:22.494Z,10.75
2022-11-01T06:32:10.834Z,10.74
2022-11-01T06:34:58.233Z,10.77
2022-11-01T06:37:46.926Z,10.81
2022-11-01T06:40:36.077Z,10.84
2022-11-01T06:43:24.000Z,10.85
2022-11-01T06:46:14.628Z,10.85
2022-11-01T06:49:02.843Z,10.84
2022-11-01T06:51:50.618Z,10.84
2022-11-01T06:54:38.539Z,10.82
2022-11-01T06:57:26.921Z,10.82
2022-11-01T07:00:14.826Z,10.84
2022-11-01T07:03:10.321Z,10.86
2022-11-01T07:06:00.750Z,10.90
2022-11-01T07:08:48.312Z,10.96
2022-11-01T07:11:36.661Z,11.00
2022-11-01T07:14:24.451Z,11.02
2022-11-01T07:17:12.361Z,11.01
2022-11-01T07:20:00.112Z,11.00
2022-11-01T07:22:47.871Z,11.03
2022-11-01T07:25:36.073Z,11.03
2022-11-01T07:28:24.639Z,11.05
2022-11-01T07:31:12.052Z,11.09
2022-11-01T07:34:00.108Z,11.14
2022-11-01T07:36:47.784Z,11.17
2022-11-01T07:39:35.772Z,11.21
2022-11-01T07:42:23.508Z,11.22
2022-11-01T07:45:13.528Z,11.26
2022-11-01T07:48:10.459Z,11.30
2022-11-01T07:50:58.485Z,11.25
2022-11-01T07:53:46.440Z,11.21
2022-11-01T07:56:34.690Z,11.16
2022-11-01T07:59:22.390Z,11.18
2022-11-01T08:02:10.762Z,11.14
2022-11-01T08:04:58.837Z,11.15
2022-11-01T08:07:46.624Z,11.15
2022-11-01T08:10:36.198Z,11.17
2022-11-01T08:13:25.190Z,11.17
2022-11-01T08:16:18.257Z,11.18
2022-11-01T08:19:05.979Z,11.22
2022-11-01T08:21:56.943Z,11.24
2022-11-01T08:24:44.465Z,11.22
2022-11-01T08:27:34.438Z,11.24
2022-11-01T08:30:23.105Z,11.29
2022-11-01T08:33:11.703Z,11.36
2022-11-01T08:35:59.226Z,11.42
2022-11-01T08:38:47.071Z,11.44
2022-11-01T08:41:37.219Z,11.49
2022-11-01T08:44:25.256Z,11.48
2022-11-01T08:47:12.973Z,11.45
2022-11-01T08:50:00.996Z,11.40
2022-11-01T08:52:48.776Z,11.39
2022-11-01T08:55:38.138Z,11.34
2022-11-01T08:58:25.917Z,11.29
2022-11-01T09:01:13.710Z,11.25
2022-11-01T09:04:02.407Z,11.21
2022-11-01T09:06:50.180Z,11.22
2022-11-01T09:09:37.966Z,11.20
2022-11-01T09:12:25.848Z,11.20
2022-11-01T09:15:13.979Z,11.24
2022-11-01T09:18:07.245Z,11.25
2022-11-01T09:20:56.561Z,11.28
2022-11-01T09:23:44.160Z,11.30
2022-11-01T09:26:31.914Z,11.36
2022-11-01T09:29:21.417Z,11.40
2022-11-01T09:32:11.288Z,11.45
2022-11-01T09:34:59.282Z,11.46
2022-11-01T09:37:46.935Z,11.47
2022-11-01T09:40:44.252Z,11.52
2022-11-01T09:43:37.614Z,11.54
2022-11-01T09:46:38.323Z,11.55
2022-11-01T09:49:32.654Z,11.50
2022-11-01T09:52:24.508Z,11.45
2022-11-01T09:55:18.313Z,11.41
2022-11-01T09:58:17.299Z,11.35
2022-11-01T10:01:44.587Z,11.28
2022-11-01T10:05:06.380Z,11.23
2022-11-01T10:08:11.895Z,11.22
2022-11-01T10:11:45.305Z,11.19
2022-11-01T10:14:47.777Z,11.18
2022-11-01T10:17:53.993Z,11.18
2022-11-01T10:21:05.503Z,11.17
2022-11-01T10:23:56.421Z,11.21
2022-11-01T10:26:45.687Z,11.25
2022-11-01T10:29:42.727Z,11.33
2022-11-01T10:32:40.525Z,11.42
2022-11-01T10:35:45.248Z,11.48
2022-11-01T10:39:23.101Z,11.53
2022-11-01T10:41:53.587Z,11.57
2022-11-01T10:44:55.219Z,11.63
2022-11-01T10:47:47.124Z,11.69
2022-11-01T10:50:36.682Z,11.74
2022-11-01T10:53:27.611Z,11.74
2022-11-01T10:56:24.033Z,11.77
2022-11-01T10:59:19.556Z,11.77
2022-11-01T11:02:29.955Z,11.77
2022-11-01T11:05:17.827Z,11.78
2022-11-01T11:08:30.853Z,11.81
2022-11-01T11:11:32.648Z,11.81
2022-11-01T11:14:21.608Z,11.80
2022-11-01T11:17:46.314Z,11.81
2022-11-01T11:20:37.431Z,11.81
2022-11-01T11:23:39.166Z,11.84
2022-11-01T11:26:28.137Z,11.83
2022-11-01T11:29:50.004Z,11.83
2022-11-01T11:32:46.719Z,11.81
2022-11-01T11:35:37.865Z,11.76
2022-11-01T11:38:49.137Z,11.70
2022-11-01T11:41:45.054Z,11.67
2022-11-01T11:44:55.776Z,11.66
2022-11-01T11:47:49.312Z,11.67
2022-11-01T11:50:42.393Z,11.67
2022-11-01T11:54:37.491Z,11.64
2022-11-01T11:57:30.250Z,11.59
2022-11-01T12:00:30.924Z,11.59
2022-11-01T12:03:19.385Z,11.53
2022-11-01T12:06:09.031Z,11.46
2022-11-01T12:09:01.004Z,11.40
2022-11-01T12:11:50.058Z,11.36
2022-11-01T12:14:42.553Z,11.36
2022-11-01T12:17:47.067Z,11.35
2022-11-01T12:20:41.712Z,11.31
2022-11-01T12:23:38.062Z,11.31
2022-11-01T12:26:36.627Z,11.34
2022-11-01T12:29:47.784Z,11.37
2022-11-01T12:32:52.559Z,11.41
2022-11-01T12:35:48.119Z,11.44
2022-11-01T12:39:01.372Z,11.49
2022-11-01T12:42:03.984Z,11.54
2022-11-01T12:45:16.829Z,11.60
2022-11-01T12:48:43.959Z,11.70
2022-11-01T12:51:40.841Z,11.79
2022-11-01T12:54:47.840Z,11.88
2022-11-01T12:57:37.556Z,11.93
2022-11-01T13:01:02.394Z,11.99
2022-11-01T13:04:31.343Z,12.11
2022-11-01T13:07:52.722Z,12.20
2022-11-01T13:10:46.489Z,12.26
2022-11-01T13:13:58.232Z,12.30
2022-11-01T13:16:52.328Z,12.28
2022-11-01T13:20:16.108Z,12.24
2022-11-01T13:23:23.541Z,12.17
2022-11-01T13:26:28.859Z,12.19
2022-11-01T13:29:45.428Z,12.18
2022-11-01T13:33:02.123Z,12.13
2022-11-01T13:36:21.774Z,12.11
2022-11-01T13:40:08.216Z,12.09
2022-11-01T13:43:11.469Z,12.05
2022-11-01T13:46:36.365Z,12.03
2022-11-01T13:50:07.797Z,12.03
2022-11-01T13:53:30.102Z,11.96
2022-11-01T13:56:29.766Z,11.87
2022-11-01T13:59:58.222Z,11.83
2022-11-01T14:02:59.329Z,11.79
2022-11-01T14:06:11.521Z,11.75
2022-11-01T14:09:25.939Z,11.71
2022-11-01T14:12:46.668Z,11.70
2022-11-01T14:16:01.835Z,11.73
2022-11-01T14:19:04.991Z,11.78
2022-11-01T14:21:53.710Z,11.81
2022-11-01T14:25:24.431Z,11.82
2022-11-01T14:28:18.021Z,11.84
2022-11-01T14:31:11.069Z,11.84
2022-11-01T14:34:10.248Z,11.82
2022-11-01T14:37:03.741Z,11.78
2022-11-01T14:39:55.707Z,11.75
2022-11-01T14:42:47.278Z,11.69
2022-11-01T14:45:45.126Z,11.64
2022-11-01T14:49:23.577Z,11.60
2022-11-01T14:52:24.736Z,11.52
2022-11-01T14:55:34.811Z,11.50
2022-11-01T14:58:24.421Z,11.50
2022-11-01T15:01:18.001Z,11.50
2022-11-01T15:04:06.356Z,11.47
2022-11-01T15:06:54.001Z,11.40
2022-11-01T15:09:41.851Z,11.38
2022-11-01T15:12:58.894Z,11.35
2022-11-01T15:16:10.253Z,11.30
2022-11-01T15:19:10.288Z,11.25
2022-11-01T15:22:03.481Z,11.24
2022-11-01T15:25:04.761Z,11.22
2022-11-01T15:27:55.623Z,11.18
2022-11-01T15:30:43.561Z,11.12
2022-11-01T15:33:32.238Z,11.11
2022-11-01T15:36:27.669Z,11.10
2022-11-01T15:39:31.711Z,11.07
2022-11-01T15:42:34.023Z,11.06
2022-11-01T15:45:32.535Z,11.07
2022-11-01T15:48:37.313Z,11.08
2022-11-01T15:51:28.141Z,11.08
2022-11-01T15:54:42.107Z,11.10
2022-11-01T15:57:47.772Z,11.09
2022-11-01T16:00:42.926Z,11.10
2022-11-01T16:03:42.151Z,11.10
2022-11-01T16:06:43.401Z,11.11
2022-11-01T16:09:55.386Z,11.13
2022-11-01T16:12:45.607Z,11.14
2022-11-01T16:15:34.877Z,11.17
2022-11-01T16:18:25.768Z,11.19
2022-11-01T16:21:19.563Z,11.19
2022-11-01T16:24:21.523Z,11.18
2022-11-01T16:27:28.095Z,11.20
2022-11-01T16:30:46.719Z,11.22
2022-11-01T16:33:35.737Z,11.25
2022-11-01T16:36:52.776Z,11.30
2022-11-01T16:39:40.823Z,11.36
2022-11-01T16:42:29.651Z,11.40
2022-11-01T16:45:17.923Z,11.44
2022-11-01T16:48:24.488Z,11.44
2022-11-01T16:51:13.764Z,11.45
2022-11-01T16:54:02.441Z,11.46
2022-11-01T16:56:58.626Z,11.49
2022-11-01T16:59:46.626Z,11.51
2022-11-01T17:02:35.034Z,11.55
2022-11-01T17:05:23.844Z,11.57
2022-11-01T17:08:12.330Z,11.60
2022-11-01T17:10:59.715Z,11.62
2022-11-01T17:13:47.580Z,11.65
2022-11-01T17:16:37.013Z,11.68
2022-11-01T17:19:33.244Z,11.69
2022-11-01T17:22:26.472Z,11.70
2022-11-01T17:25:20.313Z,11.69
2022-11-01T17:28:07.719Z,11.70
2022-11-01T17:30:55.887Z,11.69
2022-11-01T17:33:44.612Z,11.70
2022-11-01T17:36:36.918Z,11.71
2022-11-01T17:39:29.696Z,11.71
2022-11-01T17:42:17.669Z,11.73
2022-11-01T17:45:26.251Z,11.74
2022-11-01T17:48:21.995Z,11.75
2022-11-01T17:51:10.078Z,11.77
2022-11-01T17:53:58.467Z,11.78
2022-11-01T17:56:46.166Z,11.78
2022-11-01T17:59:33.868Z,11.78
2022-11-01T18:02:21.634Z,11.79
2022-11-01T18:05:10.012Z,11.79
2022-11-01T18:07:59.167Z,11.79
2022-11-01T18:11:03.512Z,11.76
2022-11-01T18:14:28.968Z,11.75
2022-11-01T18:18:13.359Z,11.73
2022-11-01T18:21:57.460Z,11.69
2022-11-01T18:25:10.207Z,11.69
2022-11-01T18:28:01.773Z,11.68
2022-11-01T18:31:00.520Z,11.69
2022-11-01T18:34:38.084Z,11.71
2022-11-01T18:37:39.383Z,11.70
2022-11-01T18:40:38.475Z,11.71
2022-11-01T18:43:38.347Z,11.72
2022-11-01T18:46:37.327Z,11.74
2022-11-01T18:49:28.608Z,11.75
2022-11-01T18:52:19.348Z,11.77
2022-11-01T18:55:13.825Z,11.78
2022-11-01T18:58:16.388Z,11.79
2022-11-01T19:01:32.379Z,11.79
2022-11-01T19:04:27.746Z,11.80
2022-11-01T19:07:39.405Z,11.82
2022-11-01T19:10:35.488Z,11.83
2022-11-01T19:13:31.711Z,11.84
2022-11-01T19:16:20.434Z,11.86
2022-11-01T19:19:18.097Z,11.87
2022-11-01T19:22:28.274Z,11.89
2022-11-01T19:25:22.744Z,11.91
2022-11-01T19:28:38.695Z,11.93
2022-11-01T19:31:29.390Z,11.94
2022-11-01T19:34:27.840Z,11.97
2022-11-01T19:37:34.879Z,11.98
2022-11-01T19:40:35.225Z,11.98
2022-11-01T19:43:27.059Z,11.99
2022-11-01T19:46:24.249Z,12.01
2022-11-01T19:49:25.739Z,12.04
2022-11-01T19:52:36.311Z,12.05
2022-11-01T19:55:46.292Z,12.06
2022-11-01T19:58:46.728Z,12.05
2022-11-01T20:01:42.276Z,12.05
2022-11-01T20:04:32.657Z,12.07
2022-11-01T20:07:24.691Z,12.08
2022-11-01T20:10:12.444Z,12.10
2022-11-01T20:13:00.461Z,12.12
2022-11-01T20:15:49.564Z,12.14
2022-11-01T20:18:37.228Z,12.16
2022-11-01T20:21:25.115Z,12.18
2022-11-01T20:24:13.616Z,12.19
2022-11-01T20:27:02.400Z,12.22
2022-11-01T20:29:50.227Z,12.23
2022-11-01T20:32:38.116Z,12.24
2022-11-01T20:35:26.251Z,12.24
2022-11-01T20:38:14.153Z,12.25
2022-11-01T20:41:02.122Z,12.26
2022-11-01T20:43:54.564Z,12.27
2022-11-01T20:47:03.187Z,12.31
2022-11-01T20:49:50.715Z,12.32
2022-11-01T20:52:40.084Z,12.33
2022-11-01T20:55:28.267Z,12.37
2022-11-01T20:58:16.054Z,12.38
2022-11-01T21:01:03.747Z,12.37
2022-11-01T21:03:55.262Z,12.39
2022-11-01T21:06:43.420Z,12.42
2022-11-01T21:09:43.800Z,12.46
2022-11-01T21:12:52.962Z,12.48
2022-11-01T21:15:40.823Z,12.47
2022-11-01T21:18:43.740Z,12.50
2022-11-01T21:21:35.077Z,12.51
2022-11-01T21:24:30.640Z,12.51
2022-11-01T21:30:20.991Z,12.52
2022-11-01T21:33:31.630Z,12.50
2022-11-01T21:36:19.489Z,12.49
2022-11-01T21:39:31.033Z,12.49
2022-11-01T21:42:34.135Z,12.50
2022-11-01T21:45:32.783Z,12.50
2022-11-01T21:48:29.072Z,12.49
2022-11-01T21:51:17.323Z,12.48
2022-11-01T21:54:05.107Z,12.46
2022-11-01T21:56:54.031Z,12.47
2022-11-01T21:59:43.495Z,12.47
2022-11-01T22:02:31.599Z,12.48
2022-11-01T22:05:19.340Z,12.49
2022-11-01T22:08:07.014Z,12.51
2022-11-01T22:10:55.120Z,12.50
2022-11-01T22:13:42.833Z,12.49
2022-11-01T22:16:31.521Z,12.47
2022-11-01T22:19:19.164Z,12.45
2022-11-01T22:22:10.969Z,12.43
2022-11-01T22:24:58.914Z,12.40
2022-11-01T22:27:46.809Z,12.37
2022-11-01T22:30:34.509Z,12.35
2022-11-01T22:33:22.275Z,12.30
2022-11-01T22:36:31.296Z,12.27
2022-11-01T22:39:22.786Z,12.23
2022-11-01T22:42:15.938Z,12.20
2022-11-01T22:45:18.019Z,12.14
2022-11-01T22:48:18.748Z,12.08
2022-11-01T22:51:16.770Z,12.05
2022-11-01T22:54:21.043Z,12.03
2022-11-01T22:57:08.593Z,12.02
2022-11-01T23:00:21.466Z,12.00
2022-11-01T23:03:22.879Z,11.98
2022-11-01T23:06:27.848Z,11.99
2022-11-01T23:09:22.125Z,11.95
2022-11-01T23:12:42.469Z,11.92
2022-11-01T23:15:33.184Z,11.91
2022-11-01T23:18:27.537Z,11.91
2022-11-01T23:21:15.652Z,11.91
2022-11-01T23:24:04.085Z,11.91
2022-11-01T23:26:51.521Z,11.91
2022-11-01T23:29:42.010Z,11.88
2022-11-01T23:32:30.894Z,11.87
2022-11-01T23:35:21.826Z,11.87
2022-11-01T23:38:45.338Z,11.88
2022-11-01T23:41:48.608Z,11.89
2022-11-01T23:44:39.862Z,11.89
2022-11-01T23:47:41.789Z,11.89
2022-11-01T23:50:34.495Z,11.90
2022-11-01T23:53:39.463Z,11.89
2022-11-01T23:56:27.145Z,11.90
2022-11-01T23:59:16.499Z,11.92
